MAD weather

Public forecast

Using degrees Celsius for public forecast. Weather courtesy of forecast.io.

Current aviation weather report (METAR) for Adolfo Suárez Madrid–Barajas Airport

Retrieved 2020/08/10 10:30 UTC (18 minutes ago):

LEMD 101030Z 13005KT 100V170 9999 FEW060CB 28/11 Q1015 TEMPO TSRA

Aviation forecast (TAF) for Adolfo Suárez Madrid–Barajas Airport

Retrieved 2020/08/10 06:55 UTC (4 hours ago):

TAF COR LEMD 100534Z 1006/1112 VRB05KT CAVOK TX35/1016Z TN23/1106Z BECMG 1010/1012 18012KT PROB40 TEMPO 1012/1019 18018G28KT TEMPO 1006/1020 FEW040TCU PROB40 TEMPO 1006/1020 VRB15G25KT 3000 TSRA SCT040CB BECMG 1020/1022 VRB05KT PROB30 TEMPO 1106/1112 17010KT